Time;durP1;ratioP1;P1;durP2;ratioP2;P2;SDS_P1;SDS_P2;PMS_P1;PMS_P2;Temp;Humidity;BMP_temperature;BMP_pressure;BME280_temperature;BME280_humidity;BME280_pressure;Samples;Min_cycle;Max_cycle;Signal;HPM_P1;HPM_P2
2021/07/18 00:00:39;;;;;;;11.23;5.75;;;;;;;16.00;88.22;102706.78;6129874;23;20026;-79
2021/07/18 00:03:05;;;;;;;12.93;6.78;;;;;;;15.96;88.44;102697.84;6131233;23;20488;-79
2021/07/18 00:05:30;;;;;;;13.65;6.07;;;;;;;15.94;88.65;102706.63;6130722;23;20010;-79
2021/07/18 00:07:56;;;;;;;14.50;6.45;;;;;;;15.91;88.29;102693.28;6104783;23;20045;-81
2021/07/18 00:10:27;;;;;;;15.45;5.93;;;;;;;15.90;88.67;102694.13;6130111;23;20010;-80
2021/07/18 00:12:52;;;;;;;14.57;5.93;;;;;;;15.87;89.03;102694.06;6129968;23;20033;-80
2021/07/18 00:15:18;;;;;;;9.25;6.30;;;;;;;15.84;89.35;102685.19;6104933;23;20006;-79
2021/07/18 00:17:46;;;;;;;11.90;6.28;;;;;;;15.84;89.21;102690.50;6130946;23;20140;-81
2021/07/18 00:20:13;;;;;;;14.13;6.85;;;;;;;15.81;88.91;102687.75;6104330;23;20029;-80
2021/07/18 00:22:43;;;;;;;10.13;5.72;;;;;;;15.81;88.56;102682.44;6104798;23;20311;-81
2021/07/18 00:25:11;;;;;;;12.07;5.78;;;;;;;15.77;88.78;102674.34;6130460;23;20016;-80
2021/07/18 00:27:43;;;;;;;11.55;5.60;;;;;;;15.72;89.06;102679.56;6130097;23;20353;-80
2021/07/18 00:30:31;;;;;;;12.25;5.75;;;;;;;15.70;89.35;102680.38;6130657;23;20009;-80
2021/07/18 00:32:57;;;;;;;12.45;5.70;;;;;;;15.65;89.26;102682.91;6130402;23;20021;-79
2021/07/18 00:35:22;;;;;;;9.40;5.82;;;;;;;15.60;89.18;102679.22;6130261;23;20006;-82
2021/07/18 00:37:48;;;;;;;11.38;6.78;;;;;;;15.58;89.38;102678.31;6130032;23;20069;-80
2021/07/18 00:40:14;;;;;;;15.13;6.05;;;;;;;15.57;89.61;102680.06;6130227;23;20084;-80
2021/07/18 00:42:40;;;;;;;11.02;6.45;;;;;;;15.56;89.54;102682.66;6104076;23;20009;-80
2021/07/18 00:45:25;;;;;;;12.60;6.65;;;;;;;15.58;89.68;102678.31;6130041;23;20134;-80
2021/07/18 00:47:52;;;;;;;11.73;6.53;;;;;;;15.58;89.55;102680.94;6129565;23;20076;-80
2021/07/18 00:50:17;;;;;;;15.45;6.68;;;;;;;15.58;89.80;102678.31;6129722;23;20021;-81
2021/07/18 00:52:43;;;;;;;15.23;7.50;;;;;;;15.59;89.95;102685.41;6130041;23;20009;-79
2021/07/18 00:55:10;;;;;;;9.43;5.55;;;;;;;15.57;89.72;102680.06;6130321;23;20060;-79
2021/07/18 00:57:56;;;;;;;8.57;5.22;;;;;;;15.60;88.70;102676.56;6130047;23;20010;-82
2021/07/18 01:00:22;;;;;;;15.68;6.90;;;;;;;15.55;89.38;102684.44;6130658;23;20026;-79
2021/07/18 01:02:52;;;;;;;9.75;6.63;;;;;;;15.51;89.61;102691.41;6129228;23;20017;-81
2021/07/18 01:05:18;;;;;;;13.85;7.00;;;;;;;15.50;89.89;102684.31;6129130;23;20010;-82
2021/07/18 01:07:43;;;;;;;12.65;6.82;;;;;;;15.48;90.18;102680.72;6128842;23;20040;-82
2021/07/18 01:10:10;;;;;;;15.25;7.13;;;;;;;15.50;89.97;102684.31;6128815;23;20012;-82
2021/07/18 01:12:35;;;;;;;12.35;7.40;;;;;;;15.50;90.19;102684.31;6128456;23;20035;-81
2021/07/18 01:15:01;;;;;;;15.32;7.38;;;;;;;15.50;90.20;102679.00;6128765;23;20013;-80
2021/07/18 01:17:47;;;;;;;16.30;6.72;;;;;;;15.54;90.35;102679.09;6128479;23;20020;-80
2021/07/18 01:20:33;;;;;;;13.88;6.65;;;;;;;15.57;90.08;102671.19;6128054;23;20464;-79
2021/07/18 01:22:59;;;;;;;8.80;6.20;;;;;;;15.60;90.00;102673.91;6128990;23;20041;-79
2021/07/18 01:25:25;;;;;;;15.02;7.82;;;;;;;15.60;90.44;102673.91;6128853;23;20084;-78
2021/07/18 01:27:51;;;;;;;15.10;7.53;;;;;;;15.59;90.24;102667.72;6126817;23;20429;-80
2021/07/18 01:30:16;;;;;;;16.08;8.05;;;;;;;15.57;90.40;102671.19;6128624;23;20378;-81
2021/07/18 01:33:02;;;;;;;16.85;7.65;;;;;;;15.51;90.39;102664.88;6128781;23;20080;-79
2021/07/18 01:35:28;;;;;;;11.95;7.53;;;;;;;15.49;90.44;102660.38;6128299;23;20477;-79
2021/07/18 01:38:15;;;;;;;15.02;7.75;;;;;;;15.46;90.28;102658.56;6128800;23;20006;-81
2021/07/18 01:40:41;;;;;;;15.43;7.35;;;;;;;15.44;90.23;102654.97;6128084;23;20018;-81
2021/07/18 01:43:07;;;;;;;11.55;7.60;;;;;;;15.43;90.54;102655.81;6128637;23;20021;-79
2021/07/18 01:45:33;;;;;;;14.07;7.65;;;;;;;15.41;90.12;102652.25;6128820;23;20037;-83
2021/07/18 01:47:59;;;;;;;13.63;7.78;;;;;;;15.45;90.28;102659.41;6128549;23;20389;-79
2021/07/18 01:50:44;;;;;;;15.25;8.90;;;;;;;15.45;90.39;102654.13;6128628;23;20029;-80
2021/07/18 01:53:10;;;;;;;18.77;9.20;;;;;;;15.44;90.47;102654.06;6128562;23;20021;-80
2021/07/18 01:55:35;;;;;;;15.13;8.45;;;;;;;15.44;90.64;102651.44;6129080;23;20005;-80
2021/07/18 01:58:25;;;;;;;16.75;7.90;;;;;;;15.47;90.24;102654.16;6128224;23;20085;-79
2021/07/18 02:00:51;;;;;;;20.60;9.23;;;;;;;15.43;90.89;102655.81;6128349;23;20029;-80
2021/07/18 02:03:16;;;;;;;12.73;8.43;;;;;;;15.41;90.76;102649.59;6128303;23;20005;-80
2021/07/18 02:05:42;;;;;;;16.33;8.85;;;;;;;15.37;90.77;102650.38;6128204;23;20456;-79
2021/07/18 02:08:07;;;;;;;12.80;8.65;;;;;;;15.36;90.60;102653.88;6129366;23;20436;-79
2021/07/18 02:10:33;;;;;;;14.05;8.82;;;;;;;15.35;91.04;102662.69;6128565;23;20010;-80
2021/07/18 02:12:58;;;;;;;21.52;10.10;;;;;;;15.33;91.17;102659.09;6128458;23;20002;-80
2021/07/18 02:15:24;;;;;;;15.77;9.40;;;;;;;15.31;91.05;102651.13;6103310;23;20005;-79
2021/07/18 02:17:49;;;;;;;20.38;9.32;;;;;;;15.29;91.00;102649.28;6128788;23;19998;-79
2021/07/18 02:20:37;;;;;;;21.70;9.30;;;;;;;15.26;90.95;102659.78;6128775;23;20446;-80
2021/07/18 02:23:02;;;;;;;20.80;9.48;;;;;;;15.27;90.71;102658.94;6127979;23;20025;-81
2021/07/18 02:25:29;;;;;;;15.02;9.02;;;;;;;15.26;91.08;102646.53;6128279;23;20024;-80
2021/07/18 02:28:14;;;;;;;16.92;9.32;;;;;;;15.24;90.98;102650.91;6127865;23;19997;-81
2021/07/18 02:30:40;;;;;;;21.38;9.32;;;;;;;15.23;90.96;102654.41;6128593;23;20010;-80
2021/07/18 02:33:25;;;;;;;17.42;9.60;;;;;;;15.22;91.16;102645.56;6128646;23;20473;-79
2021/07/18 02:35:51;;;;;;;16.35;9.57;;;;;;;15.19;91.47;102650.75;6128414;23;20017;-80
2021/07/18 02:38:16;;;;;;;15.20;8.77;;;;;;;15.16;91.03;102651.56;6128094;23;20002;-81
2021/07/18 02:40:42;;;;;;;16.75;8.95;;;;;;;15.16;91.15;102648.91;6127644;23;20006;-79
2021/07/18 02:43:07;;;;;;;18.60;9.38;;;;;;;15.19;91.19;102650.75;6127888;23;20009;-81
2021/07/18 02:45:33;;;;;;;20.30;9.98;;;;;;;15.20;91.50;102654.34;6127818;23;20073;-80
2021/07/18 02:47:59;;;;;;;16.15;9.40;;;;;;;15.16;91.47;102651.56;6127817;23;20303;-81
2021/07/18 02:50:46;;;;;;;16.27;9.02;;;;;;;15.16;91.10;102645.38;6127906;23;20017;-79
2021/07/18 02:53:14;;;;;;;16.35;9.70;;;;;;;15.15;91.07;102644.50;6127675;23;20089;-79
2021/07/18 02:55:39;;;;;;;18.52;9.55;;;;;;;15.12;91.29;102641.75;6128217;23;20014;-79
2021/07/18 02:58:25;;;;;;;19.30;9.45;;;;;;;15.11;91.16;102636.41;6128257;23;20013;-79
2021/07/18 03:00:51;;;;;;;14.27;8.68;;;;;;;15.11;91.16;102641.72;6127591;23;20125;-80
2021/07/18 03:03:20;;;;;;;15.73;8.80;;;;;;;15.09;91.08;102643.44;6127118;23;20005;-78
2021/07/18 03:05:46;;;;;;;19.52;8.75;;;;;;;15.07;91.16;102640.75;6128026;23;20001;-81
2021/07/18 03:08:12;;;;;;;18.50;9.38;;;;;;;15.07;91.33;102638.09;6128265;23;20076;-80
2021/07/18 03:10:38;;;;;;;19.77;8.05;;;;;;;15.05;91.15;102642.44;6127832;23;20417;-79
2021/07/18 03:13:04;;;;;;;17.35;8.80;;;;;;;15.03;91.12;102638.88;6127459;23;20013;-80
2021/07/18 03:15:50;;;;;;;18.85;9.20;;;;;;;15.01;91.43;102632.63;6128479;23;20092;-79
2021/07/18 03:18:15;;;;;;;15.23;9.43;;;;;;;14.98;91.38;102637.84;6127056;23;20010;-80
2021/07/18 03:20:41;;;;;;;17.73;9.68;;;;;;;14.96;91.48;102632.50;6127789;23;20109;-81
2021/07/18 03:23:12;;;;;;;19.95;9.75;;;;;;;14.96;91.56;102626.28;6127690;23;20013;-79
2021/07/18 03:25:38;;;;;;;16.48;9.40;;;;;;;14.96;91.76;102626.28;6127613;23;20014;-78
2021/07/18 03:28:06;;;;;;;20.02;8.93;;;;;;;14.95;91.67;102619.22;6127373;23;20045;-79
2021/07/18 03:30:31;;;;;;;18.95;9.45;;;;;;;14.96;91.53;102628.94;6127381;23;20484;-79
2021/07/18 03:32:57;;;;;;;16.83;9.23;;;;;;;14.96;91.49;102628.94;6127530;23;20025;-79
2021/07/18 03:35:22;;;;;;;17.45;9.77;;;;;;;14.96;91.34;102620.97;6127820;23;20321;-78
2021/07/18 03:37:48;;;;;;;16.23;8.65;;;;;;;14.96;91.70;102624.56;6127309;23;20330;-79
2021/07/18 03:40:16;;;;;;;12.73;8.45;;;;;;;14.96;91.41;102620.97;6127397;23;20452;-80
2021/07/18 03:43:01;;;;;;;15.10;8.38;;;;;;;14.95;91.45;102619.22;6127662;23;20347;-79
2021/07/18 03:45:26;;;;;;;12.18;8.63;;;;;;;14.92;91.49;102619.09;6126007;23;20122;-80
2021/07/18 03:47:52;;;;;;;12.35;7.90;;;;;;;14.91;91.51;102620.00;6127615;23;20628;-79
2021/07/18 03:50:18;;;;;;;13.50;8.05;;;;;;;14.88;91.29;102628.75;6127779;23;20021;-79
2021/07/18 03:52:44;;;;;;;14.70;7.47;;;;;;;14.84;91.28;102617.16;6127776;23;20033;-80
2021/07/18 03:55:10;;;;;;;12.73;7.90;;;;;;;14.83;91.23;102623.31;6127773;23;20030;-79
2021/07/18 03:57:35;;;;;;;14.77;8.35;;;;;;;14.81;91.34;102621.47;6127861;23;20006;-79
2021/07/18 04:00:24;;;;;;;16.83;8.88;;;;;;;14.80;91.49;102619.69;6127132;23;20009;-80
2021/07/18 04:02:49;;;;;;;13.73;8.18;;;;;;;14.80;91.51;102622.34;6127228;23;20010;-80
2021/07/18 04:05:15;;;;;;;15.75;9.30;;;;;;;14.76;91.53;102629.31;6127259;23;20048;-79
2021/07/18 04:07:40;;;;;;;18.05;8.43;;;;;;;14.77;91.75;102622.22;6127020;23;20334;-80
2021/07/18 04:10:06;;;;;;;16.23;9.18;;;;;;;14.79;91.93;102634.69;6127773;23;20010;-80
2021/07/18 04:12:32;;;;;;;15.50;9.68;;;;;;;14.82;92.00;102629.44;6127115;23;20045;-79
2021/07/18 04:14:57;;;;;;;15.90;9.68;;;;;;;14.86;91.89;102618.97;6101988;23;20016;-78
2021/07/18 04:17:23;;;;;;;15.90;10.43;;;;;;;14.90;92.48;102627.03;6102215;23;20022;-79
2021/07/18 04:19:51;;;;;;;15.23;9.05;;;;;;;14.95;92.21;102624.50;6127493;23;20336;-80
2021/07/18 04:22:18;;;;;;;16.38;9.27;;;;;;;14.98;92.07;102629.91;6128674;23;20017;-81
2021/07/18 04:25:25;;;;;;;15.63;8.82;;;;;;;15.03;92.09;102633.56;6127375;23;20012;-78
2021/07/18 04:27:51;;;;;;;15.20;8.77;;;;;;;15.07;92.17;102634.53;6126787;23;20017;-80
2021/07/18 04:30:16;;;;;;;21.08;9.48;;;;;;;15.11;92.47;102631.09;6127437;23;20033;-79
2021/07/18 04:32:41;;;;;;;19.05;9.27;;;;;;;15.15;92.34;102636.53;6127794;23;20030;-79
2021/07/18 04:35:08;;;;;;;19.92;9.82;;;;;;;15.21;92.23;102633.16;6127660;23;20114;-79
2021/07/18 04:37:53;;;;;;;16.60;10.18;;;;;;;15.31;92.15;102634.28;6127763;23;20448;-80
2021/07/18 04:40:19;;;;;;;22.70;11.52;;;;;;;15.38;92.40;102630.91;6128798;23;20052;-78
2021/07/18 04:43:04;;;;;;;16.08;10.45;;;;;;;15.50;92.26;102627.69;6129083;23;20069;-80
2021/07/18 04:45:49;;;;;;;17.85;11.38;;;;;;;15.62;92.46;102632.41;6128965;23;20021;-77
2021/07/18 04:48:15;;;;;;;19.60;11.38;;;;;;;15.73;92.53;102636.19;6128859;23;20002;-79
2021/07/18 04:50:40;;;;;;;21.30;10.13;;;;;;;15.85;92.32;102633.88;6128860;23;20002;-78
2021/07/18 04:53:06;;;;;;;16.52;9.73;;;;;;;15.97;92.29;102633.25;6129562;23;20017;-80
2021/07/18 04:55:31;;;;;;;17.63;9.57;;;;;;;16.07;91.98;102633.47;6129411;23;20018;-80
2021/07/18 04:57:57;;;;;;;17.33;9.90;;;;;;;16.17;91.57;102628.41;6129329;23;20028;-79
2021/07/18 05:00:23;;;;;;;13.05;8.82;;;;;;;16.29;91.30;102630.44;6128396;23;20320;-79
2021/07/18 05:03:09;;;;;;;16.65;9.23;;;;;;;16.39;90.74;102634.19;6128744;23;20310;-79
2021/07/18 05:05:35;;;;;;;16.90;8.60;;;;;;;16.49;90.45;102633.53;6127797;23;20016;-79
2021/07/18 05:08:00;;;;;;;12.38;7.90;;;;;;;16.59;90.16;102631.03;6127966;23;20006;-79
2021/07/18 05:10:28;;;;;;;15.32;8.85;;;;;;;16.68;89.68;102628.56;6128811;23;20006;-79
2021/07/18 05:12:59;;;;;;;12.85;7.57;;;;;;;16.80;89.20;102622.59;6128754;23;20330;-79
2021/07/18 05:15:44;;;;;;;11.18;7.35;;;;;;;16.93;88.74;102629.06;6128773;23;20133;-79
2021/07/18 05:18:14;;;;;;;13.77;8.13;;;;;;;17.00;88.47;102623.91;6127427;23;20002;-81
2021/07/18 05:21:00;;;;;;;11.00;7.22;;;;;;;17.11;87.91;102623.22;6129755;23;20018;-80
2021/07/18 05:23:26;;;;;;;11.05;7.30;;;;;;;17.24;87.33;102622.56;6128972;23;20041;-79
2021/07/18 05:25:52;;;;;;;10.48;7.72;;;;;;;17.41;87.20;102629.94;6129004;23;20370;-78
2021/07/18 05:28:17;;;;;;;11.50;7.15;;;;;;;17.57;86.77;102620.44;6128711;23;20021;-80
2021/07/18 05:30:43;;;;;;;12.40;6.95;;;;;;;17.72;85.31;102622.44;6128280;23;20333;-81
2021/07/18 05:33:11;;;;;;;12.75;6.72;;;;;;;17.92;85.53;102621.00;6129137;23;20006;-78
2021/07/18 05:35:56;;;;;;;9.63;6.10;;;;;;;18.10;83.85;102615.03;6128709;23;20410;-80
2021/07/18 05:38:23;;;;;;;10.27;6.00;;;;;;;18.34;83.99;102618.91;6129221;23;20329;-79
2021/07/18 05:40:48;;;;;;;9.02;5.40;;;;;;;18.59;81.71;102605.88;6129127;23;20093;-80
2021/07/18 05:43:14;;;;;;;7.65;5.57;;;;;;;18.83;81.57;102614.16;6128464;23;20029;-80
2021/07/18 05:45:59;;;;;;;7.97;5.15;;;;;;;19.08;79.28;102603.75;6102129;23;20006;-79
2021/07/18 05:48:32;;;;;;;6.57;4.53;;;;;;;19.25;78.06;102613.66;6127481;23;20006;-80
2021/07/18 05:50:58;;;;;;;9.40;5.10;;;;;;;19.51;79.17;102624.59;6128425;23;20346;-79
2021/07/18 05:53:23;;;;;;;7.90;4.30;;;;;;;19.83;75.37;102611.50;6128465;23;20068;-80
2021/07/18 05:55:48;;;;;;;8.05;5.13;;;;;;;20.00;75.58;102608.03;6128494;23;20009;-80
2021/07/18 05:58:16;;;;;;;6.43;3.88;;;;;;;20.31;73.68;102613.53;6128790;23;20002;-80
2021/07/18 06:00:44;;;;;;;7.47;3.80;;;;;;;20.59;72.74;102613.63;6128119;23;20006;-78
2021/07/18 06:03:09;;;;;;;6.88;3.70;;;;;;;20.81;71.70;102615.50;6128034;23;20010;-79
2021/07/18 06:05:35;;;;;;;7.45;3.80;;;;;;;21.14;71.80;102608.41;6128638;23;20020;-80
2021/07/18 06:08:20;;;;;;;4.13;3.38;;;;;;;21.58;69.39;102612.00;6128664;23;20068;-79
2021/07/18 06:10:47;;;;;;;4.05;2.90;;;;;;;21.97;67.44;102609.25;6128305;23;20009;-81
2021/07/18 06:13:13;;;;;;;6.10;3.92;;;;;;;22.01;68.71;102616.38;6128042;23;20084;-80
2021/07/18 06:15:41;;;;;;;6.68;3.25;;;;;;;22.23;66.12;102612.75;6128052;23;20374;-80
2021/07/18 06:18:07;;;;;;;9.32;4.00;;;;;;;22.56;65.23;102608.13;6128127;23;19998;-81
2021/07/18 06:20:33;;;;;;;6.53;3.20;;;;;;;22.94;64.04;102607.91;6127011;23;20037;-79
2021/07/18 06:22:58;;;;;;;5.88;2.95;;;;;;;23.14;64.69;102608.69;6128088;23;20013;-79
2021/07/18 06:25:23;;;;;;;4.32;3.17;;;;;;;23.28;64.51;102602.28;6127674;23;20017;-79
2021/07/18 06:27:49;;;;;;;5.25;2.47;;;;;;;23.72;63.04;102603.69;6126576;23;20006;-79
2021/07/18 06:30:15;;;;;;;4.93;2.20;;;;;;;23.96;60.12;102601.69;6128013;23;20017;-78
2021/07/18 06:33:00;;;;;;;7.80;2.78;;;;;;;24.02;61.25;102601.59;6127460;23;20012;-79
2021/07/18 06:35:27;;;;;;;6.10;2.20;;;;;;;23.88;62.61;102599.94;6101073;23;20088;-80
2021/07/18 06:37:52;;;;;;;3.80;2.10;;;;;;;24.29;60.07;102607.56;6127311;23;20006;-80
2021/07/18 06:40:37;;;;;;;3.42;2.05;;;;;;;24.48;58.89;102603.69;6127660;23;20033;-79
2021/07/18 06:43:03;;;;;;;5.35;2.10;;;;;;;24.63;58.40;102601.75;6128225;23;20005;-78
2021/07/18 06:45:28;;;;;;;4.05;1.90;;;;;;;24.50;60.17;102609.97;6127851;23;20064;-80
2021/07/18 06:48:00;;;;;;;6.82;2.42;;;;;;;24.96;57.39;102602.13;6127612;23;20010;-79
2021/07/18 06:50:26;;;;;;;6.50;2.30;;;;;;;25.03;56.75;102609.22;6127671;23;20039;-79
2021/07/18 06:52:52;;;;;;;7.07;2.10;;;;;;;24.97;57.16;102606.63;6127525;23;20558;-79
2021/07/18 06:55:17;;;;;;;5.47;2.42;;;;;;;25.17;57.28;102609.00;6101884;23;20068;-80
2021/07/18 06:57:48;;;;;;;4.82;1.73;;;;;;;25.53;56.07;102599.41;6127519;23;20010;-79
2021/07/18 07:00:17;;;;;;;3.10;1.98;;;;;;;25.45;55.20;102589.66;6127242;23;20441;-80
2021/07/18 07:02:44;;;;;;;8.10;2.28;;;;;;;25.25;55.96;102601.66;6127236;23;20006;-80
2021/07/18 07:05:10;;;;;;;4.22;1.88;;;;;;;25.34;54.90;102608.72;6126810;23;20500;-80
2021/07/18 07:07:36;;;;;;;6.97;1.85;;;;;;;25.25;55.51;102599.84;6126781;23;20010;-79
2021/07/18 07:10:02;;;;;;;3.25;1.80;;;;;;;25.39;55.30;102606.84;6127501;23;20005;-79
2021/07/18 07:12:27;;;;;;;4.07;2.05;;;;;;;25.48;54.87;102604.00;6126837;23;20014;-80
2021/07/18 07:14:53;;;;;;;5.57;1.85;;;;;;;25.37;55.00;102608.69;6126723;23;20079;-80
2021/07/18 07:17:19;;;;;;;5.97;1.90;;;;;;;25.30;55.48;102609.66;6115326;23;20538;-77
2021/07/18 07:20:04;;;;;;;5.10;1.50;;;;;;;25.52;54.57;102608.41;6124261;23;20077;-78
2021/07/18 07:22:29;;;;;;;3.05;1.70;;;;;;;25.85;54.40;102602.41;6125932;23;20018;-79
2021/07/18 07:24:55;;;;;;;4.28;1.75;;;;;;;25.97;53.86;102609.38;6125667;23;20012;-78
2021/07/18 07:27:20;;;;;;;5.60;1.55;;;;;;;25.75;55.34;102609.78;6126828;23;20014;-79
2021/07/18 07:29:48;;;;;;;6.50;1.73;;;;;;;25.95;52.92;102600.41;6126666;23;19998;-79
2021/07/18 07:32:14;;;;;;;6.95;1.88;;;;;;;25.83;53.75;102606.94;6126075;23;20092;-79
2021/07/18 07:34:39;;;;;;;7.18;1.80;;;;;;;25.48;54.19;102606.69;6125713;23;20010;-80
2021/07/18 07:37:05;;;;;;;5.35;1.90;;;;;;;25.20;56.80;102617.94;6126173;23;20006;-79
2021/07/18 07:39:30;;;;;;;9.20;1.95;;;;;;;25.11;55.77;102612.69;6125642;23;20385;-78
2021/07/18 07:41:55;;;;;;;4.25;1.60;;;;;;;25.15;54.60;102610.81;6124957;23;20317;-78
2021/07/18 07:44:21;;;;;;;4.97;1.95;;;;;;;25.40;54.43;102609.50;6125170;23;20480;-79
2021/07/18 07:47:06;;;;;;;5.40;1.88;;;;;;;25.37;54.74;102606.00;6124424;23;20009;-77
2021/07/18 07:49:31;;;;;;;3.88;1.60;;;;;;;25.46;54.17;102604.94;6124880;23;20045;-79
2021/07/18 07:51:57;;;;;;;3.67;1.25;;;;;;;25.23;54.34;102607.09;6125259;23;20501;-78
2021/07/18 07:54:22;;;;;;;8.57;1.40;;;;;;;24.98;54.50;102608.41;6124456;23;20037;-79
2021/07/18 07:56:48;;;;;;;6.22;1.50;;;;;;;24.86;56.18;102610.34;6126044;23;20422;-80
2021/07/18 07:59:13;;;;;;;4.28;1.42;;;;;;;25.04;56.50;102613.66;6126778;23;20037;-77
2021/07/18 08:01:39;;;;;;;4.03;1.52;;;;;;;25.24;53.98;102603.47;6125611;23;20009;-78
2021/07/18 08:04:04;;;;;;;3.60;1.42;;;;;;;25.29;54.38;102606.09;6125788;23;20081;-77
2021/07/18 08:06:32;;;;;;;3.63;1.55;;;;;;;25.10;57.62;102610.91;6123315;23;20060;-78
2021/07/18 08:08:57;;;;;;;2.38;1.15;;;;;;;25.11;53.60;102607.28;6126921;23;20329;-79
2021/07/18 08:11:38;;;;;;;4.13;1.23;;;;;;;25.09;55.94;102614.50;6127719;23;20006;-80
2021/07/18 08:14:04;;;;;;;6.13;1.40;;;;;;;24.95;56.22;102611.16;6128586;23;20381;-80
2021/07/18 08:16:30;;;;;;;4.28;1.45;;;;;;;25.20;55.39;102614.31;6128725;23;20010;-77
2021/07/18 08:18:55;;;;;;;3.63;1.67;;;;;;;25.22;54.47;102605.31;6128614;23;20014;-80
2021/07/18 08:21:22;;;;;;;6.30;1.40;;;;;;;25.20;54.07;102617.00;6128137;23;20025;-77
2021/07/18 08:23:49;;;;;;;4.47;1.55;;;;;;;25.20;54.10;102617.94;6127989;23;20018;-80
2021/07/18 08:26:19;;;;;;;2.25;1.38;;;;;;;25.20;55.23;102612.53;6127461;23;20044;-80
2021/07/18 08:28:47;;;;;;;2.92;1.48;;;;;;;25.33;53.83;102615.03;6127081;23;20017;-79
2021/07/18 08:31:20;;;;;;;6.13;1.40;;;;;;;25.47;54.99;102606.72;6123552;23;20014;-78
2021/07/18 08:33:45;;;;;;;;;;;;;;;25.69;55.15;102601.81;6127155;23;20437;-78
2021/07/18 08:36:12;;;;;;;4.55;1.45;;;;;;;25.81;52.61;102601.56;6125922;23;19964;-80
2021/07/18 08:38:38;;;;;;;3.42;1.30;;;;;;;25.84;51.93;102593.44;6126923;23;20072;-81
2021/07/18 08:41:03;;;;;;;7.88;1.73;;;;;;;25.84;53.12;102601.53;6126172;23;20476;-78
2021/07/18 08:43:34;;;;;;;5.43;1.67;;;;;;;26.17;52.27;102601.78;6099745;23;20065;-78
2021/07/18 08:45:59;;;;;;;3.20;1.55;;;;;;;26.02;51.59;102599.38;6077127;23;20010;-77
2021/07/18 08:48:24;;;;;;;3.63;1.55;;;;;;;25.98;52.87;102601.25;6127391;23;20002;-78
2021/07/18 08:51:12;;;;;;;2.70;1.15;;;;;;;25.96;52.91;102608.47;6127284;23;20065;-78
2021/07/18 08:53:37;;;;;;;5.65;1.80;;;;;;;25.96;54.46;102602.19;6127784;23;20024;-79
2021/07/18 08:56:03;;;;;;;4.22;1.50;;;;;;;26.48;51.23;102589.41;6126580;23;20010;-78
2021/07/18 08:58:29;;;;;;;3.22;1.73;;;;;;;26.43;52.54;102590.41;6126931;23;19998;-80
2021/07/18 09:00:54;;;;;;;3.15;1.60;;;;;;;26.64;51.68;102588.13;6126977;23;20008;-78
2021/07/18 09:03:19;;;;;;;4.65;1.50;;;;;;;27.18;49.13;102581.47;6126465;23;20421;-78
2021/07/18 09:05:46;;;;;;;2.78;1.58;;;;;;;27.54;50.19;102586.88;6127592;23;20310;-79
2021/07/18 09:08:41;;;;;;;5.68;1.83;;;;;;;27.80;47.14;102582.53;6126849;23;20018;-77
2021/07/18 09:11:24;;;;;;;3.67;1.60;;;;;;;28.08;45.85;102579.06;6126398;23;20014;-78
2021/07/18 09:14:25;;;;;;;4.05;1.40;;;;;;;28.57;46.33;102571.28;6127255;23;20089;-79
2021/07/18 09:16:51;;;;;;;5.28;1.58;;;;;;;28.78;44.11;102569.69;6127320;23;20010;-78
2021/07/18 09:19:25;;;;;;;6.88;1.70;;;;;;;29.17;42.73;102571.13;6127596;23;20021;-77
2021/07/18 09:22:11;;;;;;;7.10;1.90;;;;;;;29.14;43.14;102572.13;6101723;23;20010;-78
2021/07/18 09:24:59;;;;;;;7.82;1.55;;;;;;;29.66;43.50;102580.25;6122267;23;20061;-77
2021/07/18 09:27:26;;;;;;;4.72;1.45;;;;;;;29.73;42.52;102570.06;6128415;23;20362;-78
2021/07/18 09:30:19;;;;;;;2.42;1.30;;;;;;;29.59;43.11;102574.16;6127706;23;20010;-79
2021/07/18 09:33:04;;;;;;;3.10;1.50;;;;;;;29.60;43.10;102581.38;6096863;23;20006;-78
2021/07/18 09:35:37;;;;;;;4.72;1.58;;;;;;;30.07;44.19;102579.69;6123459;23;20446;-76
2021/07/18 09:38:05;;;;;;;3.30;1.42;;;;;;;29.72;41.64;102580.03;6103306;23;20014;-80
2021/07/18 09:40:32;;;;;;;2.65;1.30;;;;;;;30.23;42.94;102575.41;6128965;23;20092;-78
2021/07/18 09:43:01;;;;;;;3.88;1.33;;;;;;;30.40;39.57;102560.28;6128693;23;20002;-76
2021/07/18 09:45:32;;;;;;;4.65;1.50;;;;;;;30.23;40.06;102558.25;6127961;23;20005;-78
2021/07/18 09:48:05;;;;;;;3.55;1.77;;;;;;;30.26;40.14;102559.03;6128786;23;20038;-78
2021/07/18 09:50:50;;;;;;;5.13;1.55;;;;;;;30.15;41.34;102565.81;6128633;23;20006;-78
2021/07/18 09:53:41;;;;;;;8.98;1.75;;;;;;;30.57;41.61;102563.22;6127099;23;20080;-79
2021/07/18 09:56:24;;;;;;;2.10;1.42;;;;;;;30.42;39.36;102562.00;6124709;23;20430;-76
2021/07/18 09:59:13;;;;;;;3.85;1.50;;;;;;;30.27;39.22;102559.91;6126642;23;19998;-79
2021/07/18 10:01:38;;;;;;;3.58;1.30;;;;;;;30.10;41.30;102557.84;6126681;23;20142;-78
2021/07/18 10:04:04;;;;;;;6.15;1.60;;;;;;;30.01;44.00;102572.66;6127076;23;20038;-79
2021/07/18 10:07:03;;;;;;;4.57;1.48;;;;;;;29.92;40.69;102560.31;6127505;23;20002;-78
2021/07/18 10:09:29;;;;;;;3.55;1.23;;;;;;;30.47;42.10;102566.38;6127920;23;20081;-79
2021/07/18 10:11:55;;;;;;;2.42;1.40;;;;;;;30.88;38.54;102556.53;6099505;23;20072;-78
2021/07/18 10:14:41;;;;;;;3.00;1.48;;;;;;;31.24;37.94;102552.31;6125809;23;20366;-77
2021/07/18 10:17:07;;;;;;;10.13;1.58;;;;;;;30.72;40.07;102561.72;6101104;23;20036;-79
2021/07/18 10:19:33;;;;;;;5.22;1.40;;;;;;;31.26;39.36;102561.31;6125693;23;20481;-78
2021/07/18 10:21:59;;;;;;;4.63;1.50;;;;;;;31.63;37.68;102548.78;6126487;23;20037;-80
2021/07/18 10:24:26;;;;;;;4.97;1.70;;;;;;;31.89;36.94;102547.59;6127053;23;20037;-78
2021/07/18 10:26:52;;;;;;;3.00;1.70;;;;;;;31.75;37.88;102548.22;6126519;23;20005;-78
2021/07/18 10:29:17;;;;;;;3.10;1.50;;;;;;;32.20;37.10;102548.88;6126854;23;20299;-79
2021/07/18 10:31:51;;;;;;;5.95;1.65;;;;;;;32.50;37.96;102550.19;6127461;23;20097;-79
2021/07/18 10:34:19;;;;;;;5.05;1.40;;;;;;;32.78;37.37;102547.88;6101379;23;20017;-81
2021/07/18 10:36:49;;;;;;;3.70;1.65;;;;;;;32.54;37.34;102547.22;6127329;23;20006;-78
2021/07/18 10:39:36;;;;;;;3.65;1.45;;;;;;;31.83;36.58;102550.59;6101572;23;20014;-78
2021/07/18 10:42:04;;;;;;;2.20;1.42;;;;;;;32.66;36.60;102545.72;6126272;23;20008;-78
2021/07/18 10:44:50;;;;;;;4.47;1.25;;;;;;;32.76;35.13;102536.19;6126826;23;20077;-79
2021/07/18 10:47:35;;;;;;;5.03;1.50;;;;;;;32.63;37.53;102543.19;6125643;23;20010;-79
2021/07/18 10:50:01;;;;;;;4.28;1.50;;;;;;;32.57;38.16;102541.63;6123791;23;20045;-78
2021/07/18 10:52:49;;;;;;;3.55;1.20;;;;;;;32.76;37.46;102540.72;6100023;23;20429;-79
2021/07/18 10:55:42;;;;;;;2.40;1.42;;;;;;;32.66;37.79;102539.41;6126906;23;20021;-79
2021/07/18 10:58:07;;;;;;;4.53;1.67;;;;;;;32.87;36.65;102538.34;6125548;23;20145;-80
2021/07/18 11:00:32;;;;;;;3.03;1.40;;;;;;;32.57;35.22;102529.84;6125721;23;20410;-76
2021/07/18 11:03:07;;;;;;;2.63;1.13;;;;;;;32.44;36.24;102533.19;6126877;23;20010;-78
2021/07/18 11:05:44;;;;;;;4.35;1.30;;;;;;;33.48;34.17;102525.22;6127364;23;20085;-77
2021/07/18 11:08:10;;;;;;;3.72;1.10;;;;;;;33.13;34.91;102527.94;6127136;23;20002;-77
2021/07/18 11:11:07;;;;;;;5.22;1.30;;;;;;;32.60;35.87;102529.72;6126714;23;20373;-79
2021/07/18 11:14:18;;;;;;;4.57;1.23;;;;;;;31.64;36.02;102522.47;6126077;23;20034;-79
2021/07/18 11:16:53;;;;;;;2.92;1.30;;;;;;;32.53;35.45;102526.41;6125877;23;20021;-77
2021/07/18 11:19:39;;;;;;;3.22;1.20;;;;;;;32.84;35.16;102530.31;6126790;23;20017;-79
2021/07/18 11:22:06;;;;;;;3.22;1.40;;;;;;;32.95;34.15;102516.13;6127138;23;20006;-79
2021/07/18 11:24:58;;;;;;;2.78;1.27;;;;;;;32.56;37.73;102534.41;6126760;23;20433;-80
2021/07/18 11:27:50;;;;;;;6.15;1.40;;;;;;;33.12;34.96;102518.84;6121004;23;20010;-81
2021/07/18 11:30:38;;;;;;;7.82;1.35;;;;;;;32.95;35.50;102513.41;6126241;23;20013;-79
2021/07/18 11:33:33;;;;;;;4.15;1.60;;;;;;;32.45;34.25;102515.00;6126395;23;20006;-77
2021/07/18 11:35:58;;;;;;;3.75;1.60;;;;;;;31.92;36.83;102517.50;6101245;23;20060;-78
2021/07/18 11:38:24;;;;;;;5.80;1.50;;;;;;;31.82;38.46;102524.31;6100799;23;20006;-81